Bethlehem, West Bank
Current Conditions -  °F | °C
As of 12:20 AM on Sunday 21 Dec 2014 (Local Time) from LLBG Reporting Station
Few Clouds Few Clouds  
Wind Chill: 57°   Ceiling: Unl
Heat Index: 57°   Visibility: 6mi
Dew Point: 54°   Wind: 5mph
Humidity: 88%   Direction: 70°ENE
Pressure: 30.12"   Gusts: NA
Location:  31.71°N, 35.2°E
Report Text: LLBG 202120Z 07004KT 9999 FEW030 14/12 Q1020 RERA NOSIG RMKSCT065
Loading
Personal Weather Stations






























Interactive Weather Map New forecast layout! Learn more

10-Day Weather Forecast

Advertisements
Track Severe Weather on mobile